Time;durP1;ratioP1;P1;durP2;ratioP2;P2;SDS_P1;SDS_P2;PMS_P1;PMS_P2;Temp;Humidity;BMP_temperature;BMP_pressure;BME280_temperature;BME280_humidity;BME280_pressure;Samples;Min_cycle;Max_cycle;Signal;HPM_P1;HPM_P2
2023/07/21 00:01:53;;;;;;;5.60;4.15;;;;;;;;;;6215330;23;20063;-64
2023/07/21 00:04:20;;;;;;;5.40;4.00;;;;;;;;;;6215497;23;20012;-64
2023/07/21 00:06:46;;;;;;;7.85;4.13;;;;;;;;;;6214973;23;20400;-64
2023/07/21 00:09:13;;;;;;;6.85;4.38;;;;;;;;;;6216493;23;20437;-64
2023/07/21 00:11:39;;;;;;;7.38;3.75;;;;;;;;;;6215317;23;20019;-64
2023/07/21 00:14:06;;;;;;;7.20;4.28;;;;;;;;;;6215636;23;20088;-65
2023/07/21 00:16:33;;;;;;;8.75;4.38;;;;;;;;;;6189048;23;20329;-65
2023/07/21 00:19:01;;;;;;;7.07;4.90;;;;;;;;;;6214908;23;20023;-65
2023/07/21 00:21:28;;;;;;;9.60;5.55;;;;;;;;;;6189833;23;20035;-65
2023/07/21 00:23:55;;;;;;;7.13;4.28;;;;;;;;;;6214869;23;20017;-64
2023/07/21 00:26:21;;;;;;;9.25;3.80;;;;;;;;;;6213994;23;20361;-65
2023/07/21 00:28:47;;;;;;;8.88;4.18;;;;;;;;;;6216707;23;20350;-65
2023/07/21 00:31:13;;;;;;;7.50;4.72;;;;;;;;;;6216721;23;20012;-65
2023/07/21 00:33:40;;;;;;;8.35;4.07;;;;;;;;;;6190146;23;20325;-65
2023/07/21 00:36:06;;;;;;;5.63;3.97;;;;;;;;;;6190063;23;20434;-65
2023/07/21 00:38:32;;;;;;;7.43;3.78;;;;;;;;;;6189548;23;20070;-65
2023/07/21 00:40:58;;;;;;;6.95;3.45;;;;;;;;;;6215039;23;20012;-65
2023/07/21 00:43:25;;;;;;;9.48;4.03;;;;;;;;;;6190069;23;20429;-65
2023/07/21 00:45:51;;;;;;;6.90;3.92;;;;;;;;;;6215685;23;20377;-65
2023/07/21 00:48:18;;;;;;;10.98;3.42;;;;;;;;;;6213459;23;20434;-65
2023/07/21 00:50:45;;;;;;;8.48;3.90;;;;;;;;;;6214979;23;20023;-65
2023/07/21 00:53:12;;;;;;;7.78;3.85;;;;;;;;;;6215042;23;20048;-64
2023/07/21 00:55:38;;;;;;;6.63;4.00;;;;;;;;;;6213993;23;20025;-65
2023/07/21 00:58:07;;;;;;;8.77;4.13;;;;;;;;;;6211533;23;20442;-65
2023/07/21 01:00:34;;;;;;;9.07;4.20;;;;;;;;;;6216671;23;20299;-64
2023/07/21 01:03:01;;;;;;;5.55;3.53;;;;;;;;;;6214040;23;20425;-65
2023/07/21 01:05:27;;;;;;;6.25;4.00;;;;;;;;;;6213735;23;20013;-64
2023/07/21 01:07:54;;;;;;;6.60;3.90;;;;;;;;;;6213977;23;20058;-65
2023/07/21 01:10:20;;;;;;;8.60;3.72;;;;;;;;;;6189460;23;20016;-65
2023/07/21 01:12:48;;;;;;;8.63;4.53;;;;;;;;;;6215281;23;20019;-65
2023/07/21 01:15:14;;;;;;;7.78;4.50;;;;;;;;;;6214271;23;20433;-64
2023/07/21 01:17:40;;;;;;;10.13;4.63;;;;;;;;;;6213699;23;20051;-65
2023/07/21 01:20:08;;;;;;;7.82;4.70;;;;;;;;;;6215859;23;20013;-65
2023/07/21 01:22:45;;;;;;;7.80;4.43;;;;;;;;;;6216760;23;20087;-65
2023/07/21 01:25:16;;;;;;;8.45;4.22;;;;;;;;;;6214053;23;20321;-65
2023/07/21 01:27:43;;;;;;;7.05;4.18;;;;;;;;;;6214443;23;20013;-65
2023/07/21 01:30:13;;;;;;;8.38;5.78;;;;;;;;;;6189710;23;20021;-64
2023/07/21 01:32:41;;;;;;;7.68;4.22;;;;;;;;;;6189649;23;20013;-65
2023/07/21 01:35:09;;;;;;;8.55;4.32;;;;;;;;;;6216337;23;20091;-65
2023/07/21 01:37:38;;;;;;;7.25;4.05;;;;;;;;;;6214290;23;20008;-65
2023/07/21 01:40:06;;;;;;;6.47;4.43;;;;;;;;;;6188945;23;20023;-65
2023/07/21 01:42:33;;;;;;;5.93;4.50;;;;;;;;;;6215444;23;20083;-64
2023/07/21 01:45:03;;;;;;;6.20;4.25;;;;;;;;;;6215310;23;20023;-65
2023/07/21 01:47:32;;;;;;;6.80;4.32;;;;;;;;;;6214958;23;20013;-65
2023/07/21 01:50:01;;;;;;;7.40;4.45;;;;;;;;;;6216276;23;20181;-65
2023/07/21 01:52:29;;;;;;;7.13;4.10;;;;;;;;;;6215292;23;20020;-65
2023/07/21 01:55:06;;;;;;;9.35;5.00;;;;;;;;;;6215036;23;20009;-65
2023/07/21 01:57:34;;;;;;;8.65;4.65;;;;;;;;;;6215737;23;20084;-65
2023/07/21 02:00:00;;;;;;;7.35;5.07;;;;;;;;;;6215032;23;20044;-65
2023/07/21 02:02:28;;;;;;;9.60;4.97;;;;;;;;;;6191772;23;20070;-65
2023/07/21 02:04:54;;;;;;;8.32;4.90;;;;;;;;;;6217619;23;20020;-65
2023/07/21 02:07:20;;;;;;;10.80;5.47;;;;;;;;;;6215928;23;20009;-65
2023/07/21 02:09:51;;;;;;;8.80;5.88;;;;;;;;;;6192446;23;20017;-65
2023/07/21 02:12:17;;;;;;;8.07;5.10;;;;;;;;;;6215575;23;20016;-65
2023/07/21 02:14:43;;;;;;;7.10;4.72;;;;;;;;;;6215566;23;20309;-65
2023/07/21 02:17:09;;;;;;;8.20;4.85;;;;;;;;;;6215964;23;20022;-65
2023/07/21 02:19:35;;;;;;;10.13;5.40;;;;;;;;;;6216481;23;20017;-65
2023/07/21 02:22:01;;;;;;;10.63;5.78;;;;;;;;;;6192256;23;20032;-64
2023/07/21 02:24:28;;;;;;;7.85;4.85;;;;;;;;;;6215727;23;20091;-65
2023/07/21 02:26:54;;;;;;;6.53;4.93;;;;;;;;;;6215438;23;20040;-65
2023/07/21 02:29:20;;;;;;;9.85;4.65;;;;;;;;;;6218607;23;20009;-65
2023/07/21 02:31:49;;;;;;;8.30;4.43;;;;;;;;;;6217489;23;20048;-65
2023/07/21 02:34:15;;;;;;;7.47;5.32;;;;;;;;;;6192225;23;20017;-65
2023/07/21 02:36:41;;;;;;;9.65;4.95;;;;;;;;;;6217283;23;20019;-65
2023/07/21 02:39:07;;;;;;;8.10;5.78;;;;;;;;;;6215455;23;20115;-65
2023/07/21 02:41:33;;;;;;;9.20;5.28;;;;;;;;;;6215259;23;20015;-65
2023/07/21 02:43:59;;;;;;;7.28;4.57;;;;;;;;;;6215625;23;20013;-65
2023/07/21 02:46:26;;;;;;;12.50;5.38;;;;;;;;;;6215443;23;20009;-65
2023/07/21 02:48:52;;;;;;;8.70;4.97;;;;;;;;;;6215728;23;20020;-65
2023/07/21 02:51:18;;;;;;;6.50;4.72;;;;;;;;;;6217694;23;20082;-65
2023/07/21 02:53:44;;;;;;;6.28;4.43;;;;;;;;;;6215341;23;20438;-65
2023/07/21 02:56:10;;;;;;;7.07;5.13;;;;;;;;;;6217459;23;20013;-64
2023/07/21 02:58:36;;;;;;;7.00;4.40;;;;;;;;;;6218242;23;20067;-64
2023/07/21 03:01:03;;;;;;;6.65;4.32;;;;;;;;;;6215546;23;20024;-64
2023/07/21 03:03:32;;;;;;;8.27;4.82;;;;;;;;;;6188526;23;20071;-64
2023/07/21 03:05:58;;;;;;;8.23;4.45;;;;;;;;;;6216698;23;20441;-64
2023/07/21 03:08:29;;;;;;;7.15;4.72;;;;;;;;;;6216946;23;20023;-64
2023/07/21 03:10:55;;;;;;;;;;;13.10;99.90;;;;;;6215408;23;20016;-64
2023/07/21 03:13:21;;;;;;;7.82;4.80;;;;;;;;;;6216165;23;20271;-64
2023/07/21 03:15:48;;;;;;;8.55;5.70;;;;;;;;;;6215428;23;20048;-64
2023/07/21 03:18:14;;;;;;;8.38;5.05;;;;;;;;;;6191029;23;20016;-64
2023/07/21 03:20:40;;;;;;;8.70;5.90;;;;;;;;;;6216317;23;20023;-64
2023/07/21 03:23:07;;;;;;;10.50;6.40;;;;;;;;;;6216929;23;20020;-65
2023/07/21 03:25:34;;;;;;;12.27;6.68;;;;;;;;;;6215273;23;20009;-67
2023/07/21 03:28:02;;;;;;;11.55;6.32;;;;;;;;;;6190684;23;20017;-64
2023/07/21 03:30:28;;;;;;;10.77;6.50;;;;;;;;;;6215379;23;20017;-64
2023/07/21 03:32:54;;;;;;;10.50;6.80;;;;;;;;;;6215700;23;20365;-64
2023/07/21 03:35:20;;;;;;;9.70;5.97;;;;;;;;;;6213776;23;20019;-64
2023/07/21 03:37:46;;;;;;;9.23;5.90;;;;;;;;;;6216993;23;20013;-64
2023/07/21 03:40:13;;;;;;;10.10;5.40;;;;;;;;;;6216092;23;20926;-64
2023/07/21 03:42:39;;;;;;;8.60;5.55;;;;;;;;;;6190582;23;20500;-64
2023/07/21 03:45:05;;;;;;;10.93;6.05;;;;;;;;;;6217133;23;20315;-64
2023/07/21 03:47:35;;;;;;;9.98;5.68;;;;;;;;;;6216593;23;20096;-64
2023/07/21 03:50:01;;;;;;;8.65;5.20;;;;;;;;;;6217068;23;20017;-64
2023/07/21 03:52:27;;;;;;;7.45;4.38;;;;;;;;;;6215223;23;20013;-64
2023/07/21 03:54:54;;;;;;;8.07;5.00;;;;;;;;;;6216771;23;20021;-64
2023/07/21 03:57:20;;;;;;;8.00;4.90;;;;;;;;;;6216447;23;20023;-64
2023/07/21 03:59:47;;;;;;;8.82;5.65;;;;;;;;;;6214635;23;20117;-64
2023/07/21 04:02:13;;;;;;;8.63;4.88;;;;;;;;;;6214886;23;20020;-64
2023/07/21 04:04:39;;;;;;;10.20;5.38;;;;;;;;;;6215165;23;20047;-64
2023/07/21 04:07:05;;;;;;;8.68;5.78;;;;;;;;;;6216851;23;20013;-64
2023/07/21 04:09:34;;;;;;;8.32;5.88;;;;;;;;;;6215553;23;20499;-64
2023/07/21 04:12:00;;;;;;;8.63;5.35;;;;;;;;;;6216222;23;20020;-64
2023/07/21 04:14:26;;;;;;;8.52;5.25;;;;;;;;;;6216205;23;20484;-64
2023/07/21 04:16:54;;;;;;;8.73;4.90;;;;;;;;;;6214738;23;20012;-64
2023/07/21 04:19:20;;;;;;;7.53;4.78;;;;;;;;;;6216689;23;20027;-64
2023/07/21 04:21:47;;;;;;;10.10;5.13;;;;;;;;;;6213438;23;20008;-64
2023/07/21 04:24:13;;;;;;;8.10;5.10;;;;;;;;;;6216176;23;20083;-64
2023/07/21 04:26:40;;;;;;;6.68;5.10;;;;;;;;;;6216670;23;20012;-64
2023/07/21 04:29:06;;;;;;;7.50;4.60;;;;;;;;;;6216207;23;20013;-63
2023/07/21 04:31:32;;;;;;;7.40;4.88;;;;;;;;;;6214814;23;20012;-64
2023/07/21 04:33:59;;;;;;;9.05;5.05;;;;;;;;;;6216611;23;20020;-64
2023/07/21 04:36:25;;;;;;;10.95;5.40;;;;;;;;;;6215210;23;20066;-64
2023/07/21 04:38:51;;;;;;;6.82;4.75;;;;;;;;;;6213634;23;20067;-64
2023/07/21 04:41:18;;;;;;;6.70;4.28;;;;;;;;;;6189557;23;20040;-64
2023/07/21 04:43:44;;;;;;;7.15;4.38;;;;;;;;;;6215429;23;20023;-64
2023/07/21 04:46:10;;;;;;;8.93;5.13;;;;;;;;;;6213794;23;20096;-64
2023/07/21 04:48:36;;;;;;;8.75;5.60;;;;;;;;;;6215533;23;20025;-64
2023/07/21 04:51:03;;;;;;;7.30;4.40;;;;;;;;;;6214410;23;20446;-64
2023/07/21 04:53:30;;;;;;;11.35;4.97;;;;;;;;;;6189434;23;20095;-64
2023/07/21 04:55:57;;;;;;;6.80;4.75;;;;;;;;;;6216004;23;20013;-64
2023/07/21 04:58:23;;;;;;;7.40;4.85;;;;;;;;;;6215629;23;20317;-64
2023/07/21 05:00:49;;;;;;;6.45;4.10;;;;;;;;;;6188908;23;20310;-64
2023/07/21 05:03:15;;;;;;;9.10;5.35;;;;;;;;;;6216470;23;20012;-64
2023/07/21 05:05:43;;;;;;;8.73;5.50;;;;;;;;;;6214594;23;20020;-64
2023/07/21 05:08:09;;;;;;;7.35;5.45;;;;;;;;;;6216449;23;20020;-64
2023/07/21 05:10:35;;;;;;;9.13;5.55;;;;;;;;;;6215298;23;20019;-64
2023/07/21 05:13:01;;;;;;;11.43;6.22;;;;;;;;;;6215231;23;20438;-63
2023/07/21 05:15:27;;;;;;;7.95;5.47;;;;;;;;;;6213118;23;20012;-63
2023/07/21 05:17:54;;;;;;;8.30;5.88;;;;;;;;;;6214899;23;20013;-64
2023/07/21 05:20:21;;;;;;;7.85;5.95;;;;;;;;;;6213519;23;20013;-64
2023/07/21 05:22:47;;;;;;;10.10;7.25;;;;;;;;;;6214617;23;20050;-64
2023/07/21 05:25:17;;;;;;;7.35;5.38;;;;;;;;;;6189647;23;20429;-64
2023/07/21 05:27:43;;;;;;;8.02;5.53;;;;;;;;;;6189473;23;20009;-64
2023/07/21 05:30:13;;;;;;;10.05;5.35;;;;;;;;;;6215497;23;20329;-64
2023/07/21 05:32:41;;;;;;;7.95;4.93;;;;;;;;;;6216344;23;20021;-64
2023/07/21 05:35:08;;;;;;;10.52;5.13;;;;;;;;;;6217933;23;20434;-64
2023/07/21 05:37:34;;;;;;;10.30;5.07;;;;;;;;;;6215878;23;20295;-64
2023/07/21 05:40:00;;;;;;;10.70;5.07;;;;;;;;;;6215443;23;20016;-64
2023/07/21 05:42:26;;;;;;;7.82;4.82;;;;;;;;;;6215723;23;20009;-63
2023/07/21 05:44:52;;;;;;;7.65;4.60;;;;;;;;;;6218233;23;20426;-63
2023/07/21 05:47:21;;;;;;;6.65;4.85;;;;;;;;;;6215976;23;20422;-64
2023/07/21 05:49:47;;;;;;;5.97;4.03;;;;;;;;;;6217424;23;20021;-64
2023/07/21 05:52:13;;;;;;;7.45;4.15;;;;;;;;;;6217025;23;20047;-65
2023/07/21 05:54:41;;;;;;;8.40;4.68;;;;;;;;;;6217613;23;20090;-64
2023/07/21 05:57:07;;;;;;;7.78;3.97;;;;;;;;;;6216183;23;20016;-64
2023/07/21 05:59:33;;;;;;;8.30;3.97;;;;;;;;;;6215140;23;20374;-65
2023/07/21 06:02:00;;;;;;;8.90;3.88;;;;;;;;;;6213399;23;20377;-65
2023/07/21 06:04:26;;;;;;;6.45;3.40;;;17.30;99.90;;;;;;6214778;23;20040;-65
2023/07/21 06:06:54;;;;;;;8.25;4.15;;;17.30;99.90;;;;;;6218047;23;20008;-66
2023/07/21 06:09:19;;;;;;;8.43;3.65;;;17.40;99.90;;;;;;6215170;23;20052;-65
2023/07/21 06:11:46;;;;;;;10.13;4.40;;;;;;;;;;6212952;23;20333;-66
2023/07/21 06:14:12;;;;;;;8.30;3.22;;;18.40;99.90;;;;;;6212535;23;20426;-64
2023/07/21 06:16:38;;;;;;;9.10;3.58;;;;;;;;;;6214653;23;20019;-64
2023/07/21 06:19:04;;;;;;;7.05;2.83;;;;;;;;;;6214921;23;20325;-63
2023/07/21 06:21:30;;;;;;;6.88;3.20;;;;;;;;;;6217266;23;20009;-64
2023/07/21 06:23:56;;;;;;;7.22;3.47;;;;;;;;;;6213919;23;20016;-64
2023/07/21 06:26:22;;;;;;;7.03;3.38;;;;;;;;;;6188979;23;20020;-65
2023/07/21 06:28:49;;;;;;;5.93;3.10;;;;;;;;;;6214111;23;20461;-64
2023/07/21 06:31:15;;;;;;;8.18;3.38;;;;;;;;;;6213800;23;20024;-64
2023/07/21 06:33:41;;;;;;;7.05;3.17;;;;;;;;;;6188944;23;20410;-64
2023/07/21 06:36:07;;;;;;;7.35;3.30;;;18.00;99.90;;;;;;6214378;23;20015;-65
2023/07/21 06:38:33;;;;;;;5.38;3.00;;;18.20;99.90;;;;;;6213689;23;20012;-64
2023/07/21 06:40:59;;;;;;;7.03;3.50;;;;;;;;;;6215150;23;20008;-64
2023/07/21 06:43:26;;;;;;;6.72;3.13;;;;;;;;;;6215761;23;20012;-64
2023/07/21 06:45:52;;;;;;;5.72;2.85;;;;;;;;;;6216371;23;20070;-64
2023/07/21 06:48:18;;;;;;;7.57;3.15;;;19.40;99.90;;;;;;6215448;23;20040;-64
2023/07/21 06:50:44;;;;;;;7.55;3.58;;;19.80;99.90;;;;;;6215643;23;20023;-64
2023/07/21 06:53:10;;;;;;;7.38;2.70;;;;;;;;;;6216844;23;20008;-64
2023/07/21 06:55:36;;;;;;;4.57;2.55;;;;;;;;;;6216056;23;20009;-64
2023/07/21 06:58:02;;;;;;;3.30;1.90;;;;;;;;;;6215635;23;20024;-64
2023/07/21 07:00:28;;;;;;;3.60;2.03;;;20.70;99.90;;;;;;6215579;23;20051;-64
2023/07/21 07:02:56;;;;;;;3.67;2.00;;;20.90;99.90;;;;;;6214803;23;20418;-64
2023/07/21 07:05:23;;;;;;;6.40;2.55;;;21.20;99.90;;;;;;6215656;23;20048;-64
2023/07/21 07:07:52;;;;;;;6.28;2.03;;;21.20;99.90;;;;;;6190563;23;20023;-64
2023/07/21 07:10:18;;;;;;;4.32;1.95;;;21.70;99.90;;;;;;6190780;23;20429;-64
2023/07/21 07:12:44;;;;;;;5.03;2.00;;;21.70;99.90;;;;;;6216975;23;20012;-64
2023/07/21 07:15:10;;;;;;;3.58;2.28;;;21.40;99.90;;;;;;6214755;23;20088;-64
2023/07/21 07:17:36;;;;;;;3.03;1.90;;;21.60;99.90;;;;;;6217118;23;20508;-64
2023/07/21 07:20:04;;;;;;;3.70;1.98;;;;;;;;;;6190958;23;20047;-64
2023/07/21 07:22:30;;;;;;;3.15;2.17;;;;;;;;;;6215389;23;20015;-64
2023/07/21 07:24:56;;;;;;;4.72;1.95;;;20.20;99.90;;;;;;6217300;23;20028;-64
2023/07/21 07:27:21;;;;;;;3.58;2.13;;;20.20;99.90;;;;;;6214314;23;20016;-64
2023/07/21 07:29:47;;;;;;;4.63;1.92;;;20.10;99.90;;;;;;6215115;23;20009;-64
2023/07/21 07:32:14;;;;;;;5.75;2.35;;;19.70;99.90;;;;;;6217243;23;20008;-64
2023/07/21 07:34:41;;;;;;;4.18;2.53;;;;;;;;;;6217230;23;20012;-64
2023/07/21 07:37:07;;;;;;;3.42;2.00;;;20.40;99.90;;;;;;6214470;23;20075;-64
2023/07/21 07:39:32;;;;;;;3.80;1.90;;;20.80;99.90;;;;;;6214838;23;20013;-65
2023/07/21 07:41:58;;;;;;;5.10;1.58;;;20.90;99.90;;;;;;6214917;23;20314;-64
2023/07/21 07:44:24;;;;;;;5.05;2.47;;;21.20;99.90;;;;;;6217276;23;20066;-64
2023/07/21 07:46:50;;;;;;;2.90;1.85;;;21.50;99.90;;;;;;6188985;23;20021;-64
2023/07/21 07:49:15;;;;;;;4.03;1.85;;;21.40;99.90;;;;;;6215220;23;20017;-64
2023/07/21 07:51:41;;;;;;;2.65;1.65;;;21.80;99.90;;;;;;6215353;23;20012;-65
2023/07/21 07:54:07;;;;;;;4.68;2.40;;;21.80;99.90;;;;;;6216126;23;20019;-65
2023/07/21 07:56:33;;;;;;;3.08;1.70;;;22.10;99.90;;;;;;6215045;23;20009;-65
2023/07/21 07:58:59;;;;;;;3.05;1.52;;;22.30;99.90;;;;;;6214102;23;20023;-65
2023/07/21 08:01:26;;;;;;;3.20;1.45;;;22.60;99.90;;;;;;6214563;23;20008;-65
2023/07/21 08:03:53;;;;;;;3.00;1.40;;;22.70;99.90;;;;;;6215507;23;20040;-64
2023/07/21 08:06:20;;;;;;;4.40;1.20;;;22.70;99.90;;;;;;6217179;23;20020;-61
2023/07/21 08:08:46;;;;;;;2.13;1.00;;;22.60;99.90;;;;;;6214543;23;20059;-71
2023/07/21 08:11:12;;;;;;;2.80;1.30;;;22.50;99.90;;;;;;6189767;23;20040;-68
2023/07/21 08:13:39;;;;;;;2.38;1.25;;;22.70;99.90;;;;;;6214478;23;20012;-64
2023/07/21 08:16:15;;;;;;;4.38;1.48;;;22.10;99.90;;;;;;6212476;23;20024;-65
2023/07/21 08:18:41;;;;;;;3.13;1.73;;;22.10;99.90;;;;;;6216267;23;20062;-62
2023/07/21 08:21:20;;;;;;;3.22;1.05;;;21.70;99.90;;;;;;6190217;23;20013;-67
2023/07/21 08:23:46;;;;;;;4.05;1.60;;;21.80;99.90;;;;;;6216311;23;20058;-61
2023/07/21 08:26:12;;;;;;;2.92;1.27;;;22.20;99.90;;;;;;6217469;23;20087;-60
2023/07/21 08:28:39;;;;;;;2.92;1.30;;;22.00;99.90;;;;;;6215307;23;20454;-63
2023/07/21 08:31:05;;;;;;;2.05;1.10;;;22.50;99.90;;;;;;6215364;23;20039;-62
2023/07/21 08:33:30;;;;;;;2.38;1.10;;;22.30;99.90;;;;;;6216212;23;20021;-61
2023/07/21 08:35:56;;;;;;;2.55;1.30;;;22.70;99.90;;;;;;6216703;23;20012;-62
2023/07/21 08:38:22;;;;;;;1.90;1.30;;;23.10;99.90;;;;;;6217330;23;20293;-62
2023/07/21 08:40:57;;;;;;;2.80;1.80;;;23.20;99.90;;;;;;6190014;23;20008;-61
2023/07/21 08:43:24;;;;;;;5.65;1.70;;;23.50;99.90;;;;;;6216664;23;20012;-64
2023/07/21 08:45:50;;;;;;;4.28;1.58;;;23.60;99.90;;;;;;6215128;23;20012;-70
2023/07/21 08:48:17;;;;;;;2.80;1.20;;;24.20;99.90;;;;;;6214419;23;20067;-71
2023/07/21 08:50:47;;;;;;;3.45;1.23;;;23.80;99.90;;;;;;6216250;23;20023;-70
2023/07/21 08:53:13;;;;;;;2.90;1.20;;;24.20;99.90;;;;;;6190423;23;20013;-70
2023/07/21 08:55:39;;;;;;;2.70;1.13;;;23.80;99.90;;;;;;6215221;23;20028;-68
2023/07/21 08:58:06;;;;;;;2.22;1.10;;;23.40;99.90;;;;;;6188792;23;20016;-67
2023/07/21 09:00:32;;;;;;;3.05;1.35;;;23.10;99.90;;;;;;6189359;23;20016;-68
2023/07/21 09:03:00;;;;;;;2.63;1.50;;;22.80;99.90;;;;;;6216276;23;20075;-68
2023/07/21 09:05:26;;;;;;;2.72;1.30;;;22.60;99.90;;;;;;6215893;23;20087;-68
2023/07/21 09:07:52;;;;;;;2.40;1.45;;;22.40;99.90;;;;;;6214295;23;20074;-68
2023/07/21 09:10:31;;;;;;;2.50;1.20;;;22.50;99.90;;;;;;6216391;23;20357;-65
2023/07/21 09:12:57;;;;;;;1.85;1.10;;;22.40;99.90;;;;;;6190632;23;20456;-65
2023/07/21 09:15:23;;;;;;;3.33;1.00;;;22.40;99.90;;;;;;6189671;23;20091;-68
2023/07/21 09:17:49;;;;;;;2.13;1.05;;;22.50;99.90;;;;;;6188945;23;20052;-65
2023/07/21 09:20:15;;;;;;;3.13;2.35;;;22.30;99.90;;;;;;6189939;23;20095;-65
2023/07/21 09:22:41;;;;;;;1.35;0.75;;;;;;;;;;6214720;23;20379;-65
2023/07/21 09:25:08;;;;;;;2.63;0.65;;;21.90;99.90;;;;;;6189942;23;20433;-65
2023/07/21 09:27:35;;;;;;;1.20;0.40;;;22.30;99.90;;;;;;6214785;23;20366;-66
2023/07/21 09:30:03;;;;;;;1.42;0.60;;;22.20;99.90;;;;;;6190648;23;20008;-65
2023/07/21 09:32:40;;;;;;;1.73;0.70;;;22.70;99.90;;;;;;6189618;23;20372;-66
2023/07/21 09:35:08;;;;;;;1.52;0.90;;;22.70;99.90;;;;;;6216971;23;20012;-65
2023/07/21 09:37:35;;;;;;;2.90;0.52;;;22.80;99.90;;;;;;6190590;23;20398;-66
2023/07/21 09:40:09;;;;;;;1.05;0.68;;;23.10;99.90;;;;;;6216117;23;20063;-64
2023/07/21 09:42:35;;;;;;;2.60;0.70;;;23.00;99.90;;;;;;6190480;23;20028;-66
2023/07/21 09:45:01;;;;;;;1.10;0.70;;;23.20;99.90;;;;;;6216794;23;20008;-65
2023/07/21 09:47:27;;;;;;;1.60;0.75;;;23.30;99.90;;;;;;6214363;23;20017;-65
2023/07/21 09:49:57;;;;;;;4.22;1.00;;;23.20;99.90;;;;;;6216754;23;20087;-67
2023/07/21 09:52:23;;;;;;;;;;;23.30;99.90;;;;;;6216008;23;20016;-67
2023/07/21 09:55:04;;;;;;;3.08;0.90;;;23.20;99.90;;;;;;6215976;23;19923;-68
2023/07/21 09:57:34;;;;;;;1.80;0.85;;;23.40;99.90;;;;;;6214219;23;20013;-67
2023/07/21 10:00:06;;;;;;;1.67;0.75;;;23.30;99.90;;;;;;6189928;23;20508;-67
2023/07/21 10:02:32;;;;;;;2.05;0.85;;;23.30;99.90;;;;;;6217026;23;20306;-67
2023/07/21 10:04:58;;;;;;;0.77;0.60;;;23.30;99.90;;;;;;6214514;23;20017;-69
2023/07/21 10:07:24;;;;;;;1.63;1.00;;;23.30;99.90;;;;;;6216021;23;20048;-64
2023/07/21 10:09:50;;;;;;;2.25;0.88;;;23.10;99.90;;;;;;6189674;23;20464;-61
2023/07/21 10:12:18;;;;;;;2.95;0.90;;;23.00;99.90;;;;;;6214563;23;20048;-61
2023/07/21 10:14:47;;;;;;;2.17;1.13;;;22.80;99.90;;;;;;6190438;23;20016;-63
2023/07/21 10:17:23;;;;;;;2.63;1.00;;;22.80;99.90;;;;;;6214541;23;20009;-62
2023/07/21 10:20:07;;;;;;;2.65;1.17;;;22.80;99.90;;;;;;6216697;23;20023;-61
2023/07/21 10:22:33;;;;;;;1.90;1.17;;;23.10;99.90;;;;;;6217967;23;20017;-64
2023/07/21 10:24:59;;;;;;;3.28;1.33;;;22.90;99.90;;;;;;6215796;23;20023;-63
2023/07/21 10:27:27;;;;;;;2.33;1.23;;;22.90;99.90;;;;;;6191077;23;20023;-63
2023/07/21 10:30:13;;;;;;;2.53;1.23;;;23.20;99.90;;;;;;6217772;23;20013;-63
2023/07/21 10:32:44;;;;;;;1.98;1.33;;;23.20;99.90;;;;;;6216146;23;20039;-62
2023/07/21 10:43:24;;;;;;;2.75;1.10;;;23.30;99.90;;;;;;6248765;22;20315;-63
2023/07/21 10:45:54;;;;;;;2.15;1.08;;;23.50;99.90;;;;;;6221209;22;20016;-65
2023/07/21 10:48:22;;;;;;;1.52;0.90;;;23.60;99.90;;;;;;6248158;22;20059;-64
2023/07/21 10:50:51;;;;;;;3.17;0.70;;;23.40;99.90;;;;;;6248456;22;20448;-67
2023/07/21 10:53:17;;;;;;;2.10;0.90;;;23.80;99.90;;;;;;6275764;22;20047;-67
2023/07/21 10:55:43;;;;;;;1.55;1.00;;;23.70;99.90;;;;;;6223862;22;20403;-66
2023/07/21 10:58:09;;;;;;;4.05;1.10;;;24.00;99.90;;;;;;6247685;22;20023;-68
2023/07/21 11:00:46;;;;;;;2.60;1.60;;;24.20;99.90;;;;;;6223515;22;20043;-62
2023/07/21 11:03:12;;;;;;;3.00;1.15;;;24.30;99.90;;;;;;6275364;22;20012;-62
2023/07/21 11:05:39;;;;;;;1.58;1.05;;;24.20;99.90;;;;;;6272437;22;20012;-62
2023/07/21 11:08:05;;;;;;;2.35;1.40;;;24.30;99.90;;;;;;6248636;22;20011;-63
2023/07/21 11:10:34;;;;;;;3.50;1.48;;;24.40;99.90;;;;;;6276301;22;20019;-62
2023/07/21 11:13:01;;;;;;;3.70;1.45;;;24.00;99.90;;;;;;6223412;22;20098;-62
2023/07/21 11:15:27;;;;;;;2.20;1.30;;;23.90;99.90;;;;;;6222533;22;20031;-69
2023/07/21 11:18:00;;;;;;;2.80;1.42;;;23.70;99.90;;;;;;6223903;22;20016;-69
2023/07/21 11:20:26;;;;;;;2.88;1.38;;;23.60;99.90;;;;;;6276082;22;20018;-69
2023/07/21 11:22:53;;;;;;;2.05;1.20;;;23.60;99.90;;;;;;6223203;22;20435;-69
2023/07/21 11:25:18;;;;;;;4.53;1.63;;;23.40;99.90;;;;;;6222131;22;20107;-68
2023/07/21 11:27:45;;;;;;;4.93;1.55;;;23.40;99.90;;;;;;6222963;22;20116;-67
2023/07/21 11:30:19;;;;;;;3.75;1.63;;;23.10;99.90;;;;;;6275576;22;20474;-68
2023/07/21 11:32:46;;;;;;;2.92;1.67;;;22.80;99.90;;;;;;6248766;22;20092;-68
2023/07/21 11:35:12;;;;;;;3.63;1.60;;;;;;;;;;6222512;22;20062;-68
2023/07/21 11:37:43;;;;;;;2.60;1.67;;;23.00;99.90;;;;;;6275871;22;20011;-68
2023/07/21 11:40:15;;;;;;;1.65;1.10;;;23.40;99.90;;;;;;6248536;22;20096;-67
2023/07/21 11:42:44;;;;;;;2.25;1.35;;;23.80;99.90;;;;;;6245465;22;20042;-62
2023/07/21 11:45:41;;;;;;;2.72;1.42;;;24.00;99.90;;;;;;6273019;22;20020;-63
2023/07/21 11:48:19;;;;;;;2.88;1.58;;;24.40;99.90;;;;;;6274733;22;20019;-63
2023/07/21 11:50:51;;;;;;;3.83;1.20;;;24.90;99.90;;;;;;6247368;22;20027;-62
2023/07/21 11:53:18;;;;;;;2.70;1.48;;;24.60;99.90;;;;;;6246367;22;20343;-63
2023/07/21 11:55:44;;;;;;;4.45;1.85;;;25.00;99.90;;;;;;6274750;22;20020;-63
2023/07/21 11:58:13;;;;;;;3.03;1.58;;;24.10;99.90;;;;;;6274649;22;20077;-63
2023/07/21 12:00:41;;;;;;;4.85;1.35;;;;;;;;;;6223661;22;20513;-62
2023/07/21 12:03:09;;;;;;;3.58;1.30;;;23.80;99.90;;;;;;6247926;22;20012;-62
2023/07/21 12:05:38;;;;;;;2.90;1.50;;;22.90;99.90;;;;;;6221842;22;20098;-62
2023/07/21 12:08:05;;;;;;;3.20;1.63;;;22.90;99.90;;;;;;6247082;22;20069;-62
2023/07/21 12:10:32;;;;;;;3.63;1.30;;;;;;;;;;6222861;22;20489;-63
2023/07/21 12:12:58;;;;;;;3.60;1.60;;;;;;;;;;6275633;22;20310;-63
2023/07/21 12:15:24;;;;;;;3.33;1.35;;;;;;;;;;6275236;22;20466;-63
2023/07/21 12:17:51;;;;;;;3.90;2.60;;;;;;;;;;6274236;22;20022;-64
2023/07/21 12:20:18;;;;;;;4.20;2.53;;;;;;;;;;6247736;22;20363;-68
2023/07/21 12:22:45;;;;;;;4.40;2.75;;;;;;;;;;6245159;22;20395;-67
2023/07/21 12:25:11;;;;;;;3.65;2.65;;;;;;;;;;6273625;22;20026;-67
2023/07/21 12:27:38;;;;;;;5.55;2.50;;;;;;;;;;6274268;22;20020;-68
2023/07/21 12:30:07;;;;;;;5.43;2.97;;;;;;;;;;6247425;22;20023;-70
2023/07/21 12:32:34;;;;;;;3.30;2.42;;;;;;;;;;6248256;22;20019;-70
2023/07/21 12:35:00;;;;;;;4.15;2.55;;;;;;;;;;6247723;22;20374;-71
2023/07/21 12:37:26;;;;;;;7.65;3.60;;;;;;;;;;6248374;22;20023;-71
2023/07/21 12:39:52;;;;;;;4.97;2.92;;;;;;;;;;6247613;22;20020;-73
2023/07/21 12:42:18;;;;;;;6.10;3.20;;;;;;;;;;6274770;22;20305;-73
2023/07/21 12:44:44;;;;;;;5.40;3.30;;;;;;;;;;6248084;22;20041;-72
2023/07/21 12:47:11;;;;;;;6.88;3.35;;;;;;;;;;6275125;22;20046;-72
2023/07/21 12:49:37;;;;;;;5.85;3.63;;;;;;;;;;6222592;22;20020;-73
2023/07/21 12:52:03;;;;;;;7.15;3.72;;;;;;;;;;6274746;22;20016;-73
2023/07/21 12:54:29;;;;;;;7.82;4.65;;;;;;;;;;6247488;22;20046;-72
2023/07/21 12:56:57;;;;;;;5.55;4.57;;;;;;;;;;6222328;22;20020;-71
2023/07/21 12:59:28;;;;;;;3.85;2.65;;;;;;;;;;6247645;22;20024;-71
2023/07/21 13:01:54;;;;;;;4.07;2.15;;;;;;;;;;6248293;22;20109;-71
2023/07/21 13:04:20;;;;;;;3.90;3.08;;;;;;;;;;6274680;22;20471;-70
2023/07/21 13:06:46;;;;;;;3.85;2.78;;;;;;;;;;6274788;22;20031;-71
2023/07/21 13:09:14;;;;;;;3.63;2.72;;;;;;;;;;6245983;22;20149;-71
2023/07/21 13:11:40;;;;;;;3.65;2.80;;;;;;;;;;6221889;22;20436;-71
2023/07/21 13:14:06;;;;;;;4.32;2.55;;;;;;;;;;6274175;22;20091;-71
2023/07/21 13:16:32;;;;;;;4.90;2.55;;;;;;;;;;6222497;22;20048;-71
2023/07/21 13:18:59;;;;;;;3.08;2.42;;;;;;;;;;6274348;22;20027;-68
2023/07/21 13:21:25;;;;;;;3.03;2.10;;;;;;;;;;6222294;22;20340;-69
2023/07/21 13:23:51;;;;;;;3.38;2.22;;;;;;;;;;6221995;22;20019;-71
2023/07/21 13:26:17;;;;;;;2.60;1.63;;;;;;;;;;6247166;22;20026;-69
2023/07/21 13:28:46;;;;;;;3.85;2.08;;;;;;;;;;6247837;22;20019;-70
2023/07/21 13:31:12;;;;;;;7.07;4.35;;;;;;;;;;6247601;22;20379;-70
2023/07/21 13:33:38;;;;;;;3.40;2.25;;;;;;;;;;6222587;22;20020;-71
2023/07/21 13:36:05;;;;;;;3.25;2.38;;;;;;;;;;6196705;22;20087;-71
2023/07/21 13:38:31;;;;;;;2.95;1.95;;;;;;;;;;6221586;22;20023;-68
2023/07/21 13:40:58;;;;;;;3.30;2.05;;;;;;;;;;6274241;22;20095;-68
2023/07/21 13:43:25;;;;;;;3.05;1.80;;;;;;;;;;6221623;22;20066;-69
2023/07/21 13:45:51;;;;;;;3.55;1.85;;;;;;;;;;6274227;22;20570;-69
2023/07/21 13:48:17;;;;;;;4.53;2.20;;;;;;;;;;6274798;22;20024;-68
2023/07/21 13:50:43;;;;;;;2.88;1.88;;;;;;;;;;6247574;22;20035;-68
2023/07/21 13:53:09;;;;;;;3.30;1.92;;;;;;;;;;6220254;22;20031;-69
2023/07/21 13:55:35;;;;;;;2.88;1.83;;;;;;;;;;6224402;22;20015;-69
2023/07/21 13:58:01;;;;;;;3.13;2.08;;;;;;;;;;6276008;22;20019;-68
2023/07/21 14:00:29;;;;;;;3.67;2.45;;;;;;;;;;6275826;22;20054;-68
2023/07/21 14:02:56;;;;;;;2.88;1.85;;;;;;;;;;6249471;22;20012;-69
2023/07/21 14:05:22;;;;;;;4.28;2.38;;;;;;;;;;6249003;22;20027;-69